CheckWX is a tool to help pilots better visualize weather data.  It is not intended as a substitute for an official pre-flight weather briefing.

23:58:19 UTC

KSFF METAR
Felts Field Airport
Spokane, Washington, USA
Current

43 mins ago

KSFF 222315Z 08004KT 5SM BR SCT008 01/M01 A3026 RMK AO2 T00111011
Observed
Nov-22 @ 23:15 UTC
Wind
  • 080° at 4 KTS
Visibility
5 SM
Flight Rules
MVFR
Conditions
Mist
Cloud Levels
  • Scattered at 800' AGL
Temperature
C / 34°F
Dewpoint
-1°C / 30°F
Humidity
87%
Altimeter
30.26" Hg
Pressure
1024.72 hPa
Previous

1 hour ago

KSFF 222253Z 00000KT 6SM HZ BKN008 02/M01 A3026 RMK AO2 SLP265 T00171011
Observed
Nov-22 @ 22:53 UTC
Visibility
6 SM
Flight Rules
IFR
Conditions
Haze
Cloud Levels
  • Broken at 800' AGL
Temperature
C / 36°F
Dewpoint
-1°C / 30°F
Humidity
81%
Altimeter
30.26" Hg
Pressure
1024.72 hPa
Previous

2 hours ago

KSFF 222153Z 00000KT 5SM BR OVC006 01/M01 A3026 RMK AO2 SLP267 T00111011
Observed
Nov-22 @ 21:53 UTC
Visibility
5 SM
Flight Rules
IFR
Conditions
Mist
Cloud Levels
  • Overcast at 600' AGL
Temperature
C / 34°F
Dewpoint
-1°C / 30°F
Humidity
87%
Altimeter
30.26" Hg
Pressure
1024.72 hPa